Time;durP1;ratioP1;P1;durP2;ratioP2;P2;SDS_P1;SDS_P2;PMS_P1;PMS_P2;Temp;Humidity;BMP_temperature;BMP_pressure;BME280_temperature;BME280_humidity;BME280_pressure;Samples;Min_cycle;Max_cycle;Signal;HPM_P1;HPM_P2
2022/10/13 00:01:29;;;;;;;10.20;8.23;;;;;;;8.46;79.51;101662.63;1747566;78;21142;-89
2022/10/13 00:03:56;;;;;;;10.10;8.03;;;;;;;8.43;79.46;101662.29;1747456;78;20944;-90
2022/10/13 00:06:25;;;;;;;10.40;7.25;;;;;;;8.40;79.46;101664.11;1747458;78;21182;-90
2022/10/13 00:08:52;;;;;;;11.83;6.87;;;;;;;8.36;79.57;101659.89;1747415;78;20909;-88
2022/10/13 00:11:26;;;;;;;9.58;7.30;;;;;;;8.33;79.50;101660.00;1747059;78;20968;-90
2022/10/13 00:13:56;;;;;;;10.72;7.67;;;;;;;8.27;79.52;101662.36;1746064;81;21235;-89
2022/10/13 00:16:22;;;;;;;11.78;7.08;;;;;;;8.20;79.32;101662.16;1746019;81;20885;-89
2022/10/13 00:18:49;;;;;;;10.13;7.60;;;;;;;8.13;79.06;101663.28;1757505;81;20971;-88
2022/10/13 00:21:18;;;;;;;12.55;7.62;;;;;;;8.06;78.97;101660.86;1758494;81;20999;-89
2022/10/13 00:23:47;;;;;;;11.48;9.28;;;;;;;8.00;79.00;101662.36;1758175;81;20984;-88
2022/10/13 00:26:15;;;;;;;13.60;11.57;;;;;;;7.94;79.10;101662.59;1757977;80;21260;-90
2022/10/13 00:28:42;;;;;;;19.67;13.85;;;;;;;7.89;79.16;101664.47;1758533;80;20916;-90
2022/10/13 00:31:21;;;;;;;22.90;16.50;;;;;;;7.84;79.15;101667.23;1741620;81;21358;-89
2022/10/13 00:33:48;;;;;;;24.15;19.95;;;;;;;7.78;79.34;101670.05;1758460;81;20888;-91
2022/10/13 00:36:16;;;;;;;26.48;19.87;;;;;;;7.74;79.54;101673.66;1758352;81;20949;-90
2022/10/13 00:38:43;;;;;;;20.95;17.23;;;;;;;7.70;79.71;101673.34;1758437;81;21783;-90
2022/10/13 00:41:12;;;;;;;16.75;13.13;;;;;;;7.67;79.86;101673.45;1758397;80;20876;-90
2022/10/13 00:44:00;;;;;;;13.53;9.68;;;;;;;7.65;79.93;101670.03;1758253;81;20877;-89
2022/10/13 00:46:33;;;;;;;12.58;10.08;;;;;;;7.62;79.90;101681.40;1740041;81;20956;-90
2022/10/13 00:49:08;;;;;;;16.00;8.88;;;;;;;7.57;80.03;101670.25;1758151;81;20853;-89
2022/10/13 00:51:46;;;;;;;12.28;9.15;;;;;;;7.54;80.17;101669.52;1742599;78;21341;-89
2022/10/13 00:54:16;;;;;;;12.78;8.68;;;;;;;7.51;80.15;101669.12;1742623;80;21385;-89
2022/10/13 00:56:43;;;;;;;11.08;8.68;;;;;;;7.47;80.31;101676.67;1758154;81;20880;-90
2022/10/13 00:59:17;;;;;;;11.28;7.62;;;;;;;7.44;80.33;101676.28;1758178;81;20920;-90
2022/10/13 01:01:43;;;;;;;10.58;8.13;;;;;;;7.41;80.22;101672.94;1758374;81;21378;-90
2022/10/13 01:04:10;;;;;;;12.18;8.60;;;;;;;7.33;80.17;101669.23;1758244;81;21397;-89
2022/10/13 01:06:36;;;;;;;13.22;8.23;;;;;;;7.28;80.23;101672.44;1741105;81;20924;-89
2022/10/13 01:09:04;;;;;;;16.25;8.53;;;;;;;7.27;80.50;101672.05;1758104;80;20881;-90
2022/10/13 01:12:03;;;;;;;14.33;8.95;;;;;;;7.24;80.58;101678.18;1757993;80;21414;-89
2022/10/13 01:14:41;;;;;;;13.35;9.03;;;;;;;7.21;80.49;101669.61;1757993;81;20969;-90
2022/10/13 01:17:26;;;;;;;11.70;8.28;;;;;;;7.17;80.54;101671.89;1757953;81;21086;-89
2022/10/13 01:20:22;;;;;;;15.00;9.15;;;;;;;7.13;80.45;101672.42;1758109;81;21512;-89
2022/10/13 01:23:22;;;;;;;11.22;8.38;;;;;;;7.06;80.59;101674.80;1758280;80;20924;-90
2022/10/13 01:26:30;;;;;;;10.23;8.35;;;;;;;7.03;80.54;101676.20;1737816;80;21424;-89
2022/10/13 01:29:14;;;;;;;13.32;8.68;;;;;;;6.97;80.82;101681.13;1758143;80;21559;-89
2022/10/13 01:31:58;;;;;;;9.10;8.20;;;;;;;6.94;81.03;101682.53;1757987;81;21839;-89
2022/10/13 01:34:46;;;;;;;13.75;9.28;;;;;;;6.93;81.10;101689.08;1759816;79;20830;-87
2022/10/13 01:37:54;;;;;;;11.18;7.72;;;;;;;6.91;81.23;101685.66;1751356;81;20845;-89
2022/10/13 01:40:29;;;;;;;12.30;7.62;;;;;;;6.91;81.35;101693.48;1758159;81;20893;-90
2022/10/13 01:43:13;;;;;;;10.18;7.83;;;;;;;6.88;81.28;101688.36;1758823;81;20975;-88
2022/10/13 01:46:06;;;;;;;10.43;7.70;;;;;;;6.85;81.31;101688.00;1760950;78;21193;-89
2022/10/13 01:48:35;;;;;;;11.78;7.05;;;;;;;6.83;81.32;101691.95;1759224;78;20920;-89
2022/10/13 01:51:04;;;;;;;11.70;7.97;;;;;;;6.81;81.44;101682.46;1758128;80;21370;-90
2022/10/13 01:53:31;;;;;;;13.40;7.15;;;;;;;6.80;81.51;101688.55;1758329;80;21094;-89
2022/10/13 01:55:59;;;;;;;10.18;6.42;;;;;;;6.81;81.60;101692.89;1758302;80;20971;-88
2022/10/13 01:58:29;;;;;;;11.73;6.85;;;;;;;6.79;81.62;101687.70;1758287;80;21229;-89
2022/10/13 02:01:46;;;;;;;9.20;6.03;;;;;;;6.79;81.71;101691.62;1758370;81;20928;-90
2022/10/13 02:04:33;;;;;;;15.40;6.03;;;;;;;6.76;81.71;101689.11;1757709;81;20893;-89
2022/10/13 02:07:19;;;;;;;9.70;7.05;;;;;;;6.75;81.91;101694.34;1758137;81;20928;-90
2022/10/13 02:09:57;;;;;;;14.45;8.18;;;;;;;6.75;82.03;101693.05;1758444;80;20991;-89
2022/10/13 02:12:30;;;;;;;10.75;7.50;;;;;;;6.74;82.08;101701.78;1747847;81;21918;-89
2022/10/13 02:14:58;;;;;;;8.55;5.85;;;;;;;6.73;81.97;101700.05;1758123;81;20959;-90
2022/10/13 02:17:27;;;;;;;8.95;6.72;;;;;;;6.73;81.93;101700.89;1759438;78;21034;-90
2022/10/13 02:19:54;;;;;;;12.85;6.95;;;;;;;6.67;81.80;101701.09;1746263;80;20936;-90
2022/10/13 02:22:25;;;;;;;11.78;5.90;;;;;;;6.65;82.08;101698.96;1744902;81;20865;-90
2022/10/13 02:24:53;;;;;;;11.50;6.42;;;;;;;6.62;82.14;101701.17;1745068;81;21159;-89
2022/10/13 02:27:22;;;;;;;11.95;7.03;;;;;;;6.61;82.39;101699.94;1744871;80;20861;-88
2022/10/13 02:29:56;;;;;;;12.13;6.17;;;;;;;6.60;82.35;101700.39;1744825;81;20960;-89
2022/10/13 02:32:24;;;;;;;13.03;6.62;;;;;;;6.61;82.29;101701.23;1744553;81;20897;-91
2022/10/13 02:34:53;;;;;;;14.18;7.17;;;;;;;6.58;82.19;101699.99;1744782;81;20897;-88
2022/10/13 02:37:19;;;;;;;14.33;8.33;;;;;;;6.56;82.24;101699.20;1744653;82;21249;-91
2022/10/13 02:39:46;;;;;;;15.58;8.73;;;;;;;6.55;82.22;101697.48;1744716;81;21012;-90
2022/10/13 02:42:15;;;;;;;9.93;6.15;;;;;;;6.55;82.24;101697.48;1744612;81;20842;-89
2022/10/13 02:44:42;;;;;;;9.95;6.42;;;;;;;6.53;82.21;101697.51;1744661;81;20948;-89
2022/10/13 02:47:08;;;;;;;10.03;5.85;;;;;;;6.52;81.99;101702.78;1744743;81;20932;-90
2022/10/13 02:49:35;;;;;;;10.68;6.08;;;;;;;6.49;82.00;101706.75;1744974;81;21232;-89
2022/10/13 02:52:01;;;;;;;12.82;6.75;;;;;;;6.48;82.19;101702.45;1744922;81;21375;-89
2022/10/13 02:54:28;;;;;;;24.55;13.68;;;;;;;6.46;82.28;101702.48;1744725;81;21534;-90
2022/10/13 02:56:59;;;;;;;11.55;6.33;;;;;;;6.45;82.30;101700.78;1744717;81;20996;-87
2022/10/13 02:59:25;;;;;;;10.48;6.35;;;;;;;6.44;82.33;101706.87;1746352;79;20944;-89
2022/10/13 03:01:52;;;;;;;13.50;5.92;;;;;;;6.43;82.41;101699.96;1746680;78;21045;-91
2022/10/13 03:04:18;;;;;;;12.03;5.90;;;;;;;6.42;82.37;101702.14;1744994;81;20960;-89
2022/10/13 03:06:45;;;;;;;11.05;6.50;;;;;;;6.41;82.27;101699.14;1744901;81;21307;-90
2022/10/13 03:09:13;;;;;;;12.60;5.78;;;;;;;6.39;82.29;101703.08;1744937;82;20893;-90
2022/10/13 03:11:43;;;;;;;11.20;6.00;;;;;;;6.39;82.31;101704.84;1745018;81;20849;-90
2022/10/13 03:14:09;;;;;;;13.15;6.00;;;;;;;6.37;82.27;101697.05;1745035;81;21203;-91
2022/10/13 03:16:37;;;;;;;11.75;6.00;;;;;;;6.37;82.15;101707.92;1744968;81;20968;-90
2022/10/13 03:19:07;;;;;;;13.80;6.12;;;;;;;6.36;82.17;101701.86;1753918;80;20967;-90
2022/10/13 03:21:37;;;;;;;11.50;7.62;;;;;;;6.35;82.12;101701.44;1758269;81;21389;-90
2022/10/13 03:24:04;;;;;;;9.23;5.83;;;;;;;6.33;81.97;101701.92;1759875;78;20880;-89
2022/10/13 03:26:32;;;;;;;13.98;7.20;;;;;;;6.30;81.98;101706.38;1761329;78;21097;-90
2022/10/13 03:28:59;;;;;;;12.63;7.70;;;;;;;6.26;82.02;101706.88;1760522;79;20900;-91
2022/10/13 03:31:25;;;;;;;12.20;6.55;;;;;;;6.27;82.33;101706.42;1760744;78;20991;-89
2022/10/13 03:33:53;;;;;;;13.32;6.35;;;;;;;6.27;82.47;101706.42;1759708;81;20935;-90
2022/10/13 03:36:21;;;;;;;7.12;5.42;;;;;;;6.27;82.50;101705.13;1758384;81;20920;-88
2022/10/13 03:38:48;;;;;;;14.38;5.03;;;;;;;6.25;82.38;101710.81;1758305;81;21851;-90
2022/10/13 03:41:17;;;;;;;9.78;5.40;;;;;;;6.22;82.30;101706.12;1741901;81;20900;-90
2022/10/13 03:43:44;;;;;;;9.38;5.60;;;;;;;6.20;82.31;101710.93;1760772;78;20872;-89
2022/10/13 03:46:13;;;;;;;11.57;5.78;;;;;;;6.19;82.27;101716.59;1758731;80;20849;-89
2022/10/13 03:48:41;;;;;;;10.55;5.12;;;;;;;6.18;82.21;101713.59;1758214;80;20935;-89
2022/10/13 03:51:10;;;;;;;12.18;5.33;;;;;;;6.17;82.34;101712.31;1758389;81;21134;-89
2022/10/13 03:53:39;;;;;;;7.67;5.70;;;;;;;6.15;82.38;101718.00;1758017;80;20897;-91
2022/10/13 03:56:06;;;;;;;12.95;6.67;;;;;;;6.13;82.56;101713.28;1758188;80;20884;-90
2022/10/13 03:58:35;;;;;;;13.80;6.28;;;;;;;6.13;82.72;101716.73;1758094;81;20944;-89
2022/10/13 04:01:04;;;;;;;13.58;5.30;;;;;;;6.12;82.68;101715.03;1758145;81;20936;-89
2022/10/13 04:03:33;;;;;;;7.40;5.47;;;;;;;6.11;82.67;101721.12;1758186;80;21248;-89
2022/10/13 04:06:01;;;;;;;10.40;5.30;;;;;;;6.10;82.65;101715.97;1758252;80;20967;-89
2022/10/13 04:08:29;;;;;;;10.50;6.00;;;;;;;6.09;82.80;101716.42;1759055;81;20948;-87
2022/10/13 04:11:02;;;;;;;22.05;13.35;;;;;;;6.09;82.96;101729.86;1760924;81;20890;-91
2022/10/13 04:13:28;;;;;;;11.85;6.42;;;;;;;6.09;82.94;101724.66;1759414;81;20955;-89
2022/10/13 04:15:56;;;;;;;14.35;6.28;;;;;;;6.10;83.04;101722.48;1758398;81;21147;-87
2022/10/13 04:18:23;;;;;;;17.87;7.60;;;;;;;6.11;83.00;101726.33;1755693;80;20854;-91
2022/10/13 04:20:50;;;;;;;16.23;6.22;;;;;;;6.12;82.96;101734.56;1745224;82;21386;-90
2022/10/13 04:23:16;;;;;;;10.50;6.70;;;;;;;6.16;83.03;101731.45;1745087;81;20954;-90
2022/10/13 04:25:45;;;;;;;14.28;6.90;;;;;;;6.18;82.95;101729.22;1747437;78;20905;-88
2022/10/13 04:28:13;;;;;;;21.50;7.90;;;;;;;6.19;82.93;101737.43;1745303;80;20916;-88
2022/10/13 04:30:39;;;;;;;16.67;7.40;;;;;;;6.22;82.89;101735.19;1744951;80;20876;-90
2022/10/13 04:33:06;;;;;;;15.98;8.73;;;;;;;6.24;82.84;101741.22;1744952;81;20968;-89
2022/10/13 04:35:33;;;;;;;23.87;15.88;;;;;;;6.27;82.76;101740.29;1745081;81;20913;-90
2022/10/13 04:38:00;;;;;;;28.05;21.27;;;;;;;6.31;82.90;101741.94;1744909;81;20933;-91
2022/10/13 04:40:28;;;;;;;40.58;25.68;;;;;;;6.33;82.83;101745.36;1744882;81;20948;-91
2022/10/13 04:42:55;;;;;;;27.37;19.07;;;;;;;6.35;82.71;101749.63;1745021;80;21382;-91
2022/10/13 04:45:25;;;;;;;27.15;18.77;;;;;;;6.37;82.68;101747.85;1745099;81;20928;-91
2022/10/13 04:47:52;;;;;;;19.82;15.40;;;;;;;6.40;82.59;101746.91;1745113;81;21355;-89
2022/10/13 04:50:21;;;;;;;19.50;15.13;;;;;;;6.43;82.68;101749.47;1745377;81;20956;-91
2022/10/13 04:52:50;;;;;;;19.67;13.95;;;;;;;6.47;82.74;101749.80;1744469;81;21215;-90
2022/10/13 04:55:17;;;;;;;15.98;9.83;;;;;;;6.51;82.86;101754.02;1744862;81;20976;-91
2022/10/13 04:57:44;;;;;;;15.38;9.95;;;;;;;6.55;82.84;101750.45;1744989;81;20865;-89
2022/10/13 05:00:12;;;;;;;14.60;6.65;;;;;;;6.61;82.79;101750.30;1744970;82;20897;-89
2022/10/13 05:02:39;;;;;;;13.90;6.92;;;;;;;6.68;82.76;101756.67;1745168;81;20975;-89
2022/10/13 05:05:06;;;;;;;11.85;6.45;;;;;;;6.74;82.72;101753.91;1745063;82;21840;-88
2022/10/13 05:07:33;;;;;;;14.85;6.50;;;;;;;6.82;82.79;101761.06;1745972;81;20889;-89
2022/10/13 05:10:00;;;;;;;12.00;5.90;;;;;;;6.92;82.75;101772.98;1746116;81;20960;-88
2022/10/13 05:12:29;;;;;;;11.73;5.28;;;;;;;7.04;82.69;101770.48;1745034;81;20987;-88
2022/10/13 05:14:56;;;;;;;10.05;5.15;;;;;;;7.17;82.48;101775.78;1745118;81;20849;-88
2022/10/13 05:17:22;;;;;;;11.22;4.92;;;;;;;7.31;82.04;101772.78;1744847;82;21761;-88
2022/10/13 05:19:52;;;;;;;8.35;5.33;;;;;;;7.48;81.98;101777.55;1744591;80;20845;-89
2022/10/13 05:22:19;;;;;;;8.75;4.83;;;;;;;7.71;81.71;101774.71;1744757;81;20913;-88
2022/10/13 05:24:47;;;;;;;10.30;4.83;;;;;;;7.97;81.07;101772.17;1744816;81;20908;-89
2022/10/13 05:27:14;;;;;;;10.08;4.78;;;;;;;8.26;80.31;101776.95;1744809;81;20897;-88
2022/10/13 05:29:40;;;;;;;8.50;4.80;;;;;;;8.48;78.93;101769.31;1745265;80;21252;-88
2022/10/13 05:32:07;;;;;;;11.78;4.80;;;;;;;8.67;78.13;101773.03;1744963;81;21107;-87
2022/10/13 05:34:34;;;;;;;6.97;4.10;;;;;;;8.89;77.35;101784.05;1745257;81;20849;-89
2022/10/13 05:37:00;;;;;;;10.82;4.92;;;;;;;9.07;76.36;101776.90;1744935;81;20986;-89
2022/10/13 05:39:29;;;;;;;8.33;3.60;;;;;;;9.44;76.12;101783.88;1744992;81;21402;-89
2022/10/13 05:41:55;;;;;;;10.00;4.22;;;;;;;10.12;75.34;101783.03;1744978;81;22017;-88
2022/10/13 05:44:23;;;;;;;9.70;3.87;;;;;;;10.97;73.26;101786.15;1745597;80;20886;-89
2022/10/13 05:46:52;;;;;;;11.22;4.47;;;;;;;11.89;70.60;101787.30;1745443;80;20885;-91
2022/10/13 05:49:18;;;;;;;8.53;4.03;;;;;;;12.78;67.10;101788.27;1745780;82;20940;-89
2022/10/13 05:51:51;;;;;;;7.95;5.03;;;;;;;13.54;64.37;101793.14;1747258;81;20921;-88
2022/10/13 05:54:24;;;;;;;11.33;6.10;;;;;;;14.25;61.48;101784.81;1745866;81;21154;-91
2022/10/13 05:57:05;;;;;;;11.75;5.17;;;;;;;14.98;58.98;101788.08;1745705;81;20956;-89
2022/10/13 05:59:39;;;;;;;10.60;4.05;;;;;;;16.20;54.55;101787.16;1745455;82;20881;-88
2022/10/13 06:02:07;;;;;;;9.73;4.37;;;;;;;16.20;54.55;101787.16;1745985;81;21094;-90
2022/10/13 06:04:44;;;;;;;8.93;4.53;;;;;;;16.71;52.55;101787.31;1745906;82;20826;-89
2022/10/13 06:07:12;;;;;;;11.12;4.65;;;;;;;17.17;51.45;101781.08;1746792;82;21165;-89
2022/10/13 06:09:40;;;;;;;9.58;4.17;;;;;;;17.60;49.69;101782.52;1745908;81;21524;-90
2022/10/13 06:12:09;;;;;;;9.65;4.20;;;;;;;17.96;48.53;101781.73;1746105;81;20984;-89
2022/10/13 06:14:38;;;;;;;5.92;3.75;;;;;;;18.23;47.47;101785.49;1745905;81;21026;-91
2022/10/13 06:17:07;;;;;;;7.42;4.00;;;;;;;18.41;46.98;101785.09;1747034;81;20960;-91
2022/10/13 06:19:35;;;;;;;10.85;4.58;;;;;;;18.69;45.72;101782.52;1751647;80;21030;-89
2022/10/13 06:22:08;;;;;;;9.50;4.03;;;;;;;19.04;45.04;101779.84;1758665;81;20955;-90
2022/10/13 06:24:34;;;;;;;6.65;3.90;;;;;;;19.34;44.06;101785.09;1760348;81;20869;-89
2022/10/13 06:27:04;;;;;;;9.50;4.83;;;;;;;19.37;43.49;101786.66;1760383;81;20935;-91
2022/10/13 06:29:36;;;;;;;7.28;4.22;;;;;;;19.11;43.16;101787.36;1760629;81;20877;-91
2022/10/13 06:32:00;;;;;;;9.25;4.97;;;;;;;18.61;43.63;101788.42;1760218;78;23760;-88
2022/10/13 06:34:27;;;;;;;8.18;3.87;;;;;;;18.07;44.23;101787.56;1761058;78;21437;-88
2022/10/13 06:36:54;;;;;;;6.55;3.95;;;;;;;17.58;45.03;101782.62;1761264;81;20873;-88
2022/10/13 06:39:21;;;;;;;7.25;4.00;;;;;;;17.15;45.70;101780.34;1761189;78;20963;-89
2022/10/13 06:41:49;;;;;;;8.68;4.47;;;;;;;16.78;46.45;101776.22;1760497;81;20880;-89
2022/10/13 06:44:17;;;;;;;7.35;4.37;;;;;;;16.45;47.00;101778.45;1760251;80;21183;-89
2022/10/13 06:46:44;;;;;;;6.75;3.90;;;;;;;16.08;47.69;101781.72;1760703;78;20998;-89
2022/10/13 06:49:10;;;;;;;11.80;4.92;;;;;;;15.80;48.76;101781.31;1761231;78;21084;-89
2022/10/13 06:51:39;;;;;;;5.58;3.62;;;;;;;15.53;49.29;101779.42;1760928;78;20880;-89
2022/10/13 06:54:06;;;;;;;9.85;4.28;;;;;;;15.25;49.51;101776.33;1761183;78;21236;-89
2022/10/13 06:56:33;;;;;;;11.08;4.10;;;;;;;14.95;50.16;101780.83;1760709;81;21091;-88
2022/10/13 06:59:02;;;;;;;8.23;3.80;;;;;;;14.42;51.55;101775.91;1759429;81;20919;-88
2022/10/13 07:01:30;;;;;;;7.87;3.72;;;;;;;14.42;51.55;101775.91;1759663;80;20892;-89
2022/10/13 07:03:57;;;;;;;7.47;4.20;;;;;;;14.24;52.60;101777.82;1760306;81;21384;-87
2022/10/13 07:06:26;;;;;;;10.13;4.83;;;;;;;14.08;53.04;101777.84;1760213;81;20869;-88
2022/10/13 07:08:53;;;;;;;6.80;4.50;;;;;;;13.87;53.93;101775.07;1760247;81;21248;-88
2022/10/13 07:11:21;;;;;;;7.87;3.92;;;;;;;13.87;53.93;101775.07;1760214;80;20959;-88
2022/10/13 07:13:50;;;;;;;8.08;3.50;;;;;;;13.76;54.12;101770.86;1760155;80;20972;-88
2022/10/13 07:16:21;;;;;;;11.08;4.42;;;;;;;13.61;54.61;101771.25;1744370;80;20952;-89
2022/10/13 07:18:49;;;;;;;8.30;4.20;;;;;;;13.60;55.28;101768.22;1758906;80;20920;-90
2022/10/13 07:21:17;;;;;;;10.03;4.47;;;;;;;13.99;55.64;101774.88;1736615;82;21422;-90
2022/10/13 07:23:44;;;;;;;7.83;3.70;;;;;;;14.65;54.78;101781.67;1755307;80;20869;-90
2022/10/13 07:26:13;;;;;;;10.38;4.53;;;;;;;15.34;53.29;101775.77;1755294;81;20881;-89
2022/10/13 07:28:41;;;;;;;7.47;3.85;;;;;;;16.19;51.88;101781.03;1755173;81;20932;-93
2022/10/13 07:31:12;;;;;;;8.23;3.75;;;;;;;17.13;50.13;101771.64;1755133;81;20999;-92
2022/10/13 07:33:41;;;;;;;7.60;4.25;;;;;;;18.04;48.13;101767.89;1754279;82;21312;-93
2022/10/13 07:36:08;;;;;;;6.85;3.58;;;;;;;18.96;46.34;101766.78;1754084;81;20885;-92
2022/10/13 07:38:35;;;;;;;9.55;4.50;;;;;;;19.76;44.64;101771.16;1753901;81;20877;-92
2022/10/13 07:41:03;;;;;;;5.55;3.12;;;;;;;20.39;42.80;101768.20;1754765;80;20936;-91
2022/10/13 07:43:30;;;;;;;6.30;3.45;;;;;;;20.99;41.41;101767.17;1735729;82;20951;-89
2022/10/13 07:46:07;;;;;;;8.08;3.58;;;;;;;21.51;40.50;101765.80;1754632;80;21437;-92
2022/10/13 07:48:36;;;;;;;8.60;3.40;;;;;;;22.03;39.56;101769.64;1735633;82;20900;-91
2022/10/13 07:51:08;;;;;;;4.80;3.12;;;;;;;22.52;38.81;101767.84;1754269;81;20912;-92
2022/10/13 07:53:35;;;;;;;6.60;2.90;;;;;;;22.94;37.34;101764.34;1782998;80;20892;-91
2022/10/13 07:56:05;;;;;;;8.70;3.20;;;;;;;23.22;36.76;101767.09;1789532;80;20875;-91
2022/10/13 07:58:39;;;;;;;4.37;3.08;;;;;;;23.62;35.93;101759.73;1790136;77;21572;-92
2022/10/13 08:01:06;;;;;;;;;;;;;;;24.12;34.97;101765.49;1787771;80;21377;-90
2022/10/13 08:03:39;;;;;;;5.95;3.87;;;;;;;24.59;33.86;101761.23;1789509;79;20145;-91
2022/10/13 08:06:09;;;;;;;6.87;2.70;;;;;;;24.82;33.69;101761.55;1738191;80;21245;-91
2022/10/13 08:08:39;;;;;;;4.97;3.35;;;;;;;25.08;33.18;101759.84;1789834;80;21037;-92
2022/10/13 08:11:10;;;;;;;7.20;2.70;;;;;;;25.27;32.53;101758.30;1761982;80;20821;-92
2022/10/13 08:13:38;;;;;;;4.95;2.72;;;;;;;25.57;32.27;101758.27;1761662;80;20966;-89
2022/10/13 08:16:16;;;;;;;6.33;3.70;;;;;;;25.95;31.62;101756.03;1788864;80;20998;-92
2022/10/13 08:18:44;;;;;;;8.08;3.35;;;;;;;26.29;30.94;101754.22;1789569;80;20946;-93
2022/10/13 08:21:19;;;;;;;3.67;2.25;;;;;;;26.43;30.18;101757.05;1785030;80;20895;-92
2022/10/13 08:24:06;;;;;;;4.72;2.50;;;;;;;26.53;30.16;101756.91;1784859;80;20883;-92
2022/10/13 08:26:34;;;;;;;6.45;2.60;;;;;;;26.65;30.38;101753.38;1784269;80;20916;-91
2022/10/13 08:29:03;;;;;;;8.00;2.25;;;;;;;26.77;30.51;101747.99;1779947;79;20892;-91
2022/10/13 08:31:34;;;;;;;4.90;2.72;;;;;;;26.91;30.02;101753.17;1784319;80;20880;-92
2022/10/13 08:34:00;;;;;;;3.75;2.33;;;;;;;27.19;29.39;101753.60;1783809;80;21397;-91
2022/10/13 08:36:27;;;;;;;5.12;2.40;;;;;;;27.53;28.61;101752.47;1783580;80;21523;-92
2022/10/13 08:38:54;;;;;;;5.75;2.75;;;;;;;27.72;27.92;101748.47;1783548;80;20879;-93
2022/10/13 08:41:31;;;;;;;6.92;2.50;;;;;;;27.89;27.92;101751.44;1785143;78;21138;-89
2022/10/13 08:44:06;;;;;;;6.05;2.58;;;;;;;28.17;27.34;101747.36;1783239;79;21040;-90
2022/10/13 08:46:43;;;;;;;5.67;2.47;;;;;;;28.30;26.83;101746.23;1784968;77;20983;-91
2022/10/13 08:49:14;;;;;;;3.58;2.45;;;;;;;28.49;26.66;101738.19;1784395;77;21137;-91
2022/10/13 08:51:52;;;;;;;5.08;3.10;;;;;;;28.69;26.42;101737.98;1750342;78;20868;-90
2022/10/13 08:54:26;;;;;;;3.10;1.90;;;;;;;28.85;26.39;101736.96;1689764;81;20897;-89
2022/10/13 08:57:03;;;;;;;5.72;2.75;;;;;;;29.02;26.06;101738.15;1726710;81;20794;-91
2022/10/13 08:59:32;;;;;;;5.78;1.82;;;;;;;29.11;25.76;101739.23;1737467;82;20845;-88
2022/10/13 09:04:20;;;;;;;3.40;1.72;;;;;;;29.22;25.04;101728.47;1813939;76;22667;-89
2022/10/13 09:07:07;;;;;;;6.15;3.65;;;;;;;29.20;25.60;101735.09;1765173;79;20946;-88
2022/10/13 09:09:35;;;;;;;5.83;3.77;;;;;;;29.12;25.46;101731.44;1753115;79;21234;-90
2022/10/13 09:12:05;;;;;;;5.72;2.90;;;;;;;29.00;25.19;101730.22;1764752;79;20986;-88
2022/10/13 09:14:39;;;;;;;5.87;2.33;;;;;;;28.85;25.67;101726.16;1764048;81;20954;-87
2022/10/13 09:17:25;;;;;;;3.83;2.25;;;;;;;29.02;26.36;101730.88;1763814;81;20891;-89
2022/10/13 09:20:24;;;;;;;7.30;2.85;;;;;;;29.14;26.16;101731.27;1763601;80;21032;-88
2022/10/13 09:23:08;;;;;;;6.10;2.50;;;;;;;29.36;25.63;101722.70;1764404;81;21195;-87
2022/10/13 09:25:42;;;;;;;8.10;3.22;;;;;;;29.59;25.84;101726.60;1761926;81;21030;-90
2022/10/13 09:28:27;;;;;;;5.62;2.77;;;;;;;29.56;25.01;101724.29;1762802;80;20902;-89
2022/10/13 09:31:07;;;;;;;5.85;3.08;;;;;;;29.44;25.04;101709.61;1760469;80;21302;-89
2022/10/13 09:33:37;;;;;;;6.70;2.83;;;;;;;29.40;24.98;101708.31;1761214;80;20954;-91
2022/10/13 09:36:12;;;;;;;6.35;2.98;;;;;;;29.28;25.03;101712.00;1762830;80;21149;-90
2022/10/13 09:38:45;;;;;;;8.08;3.00;;;;;;;29.17;25.26;101709.78;1762060;81;20918;-89
2022/10/13 09:41:20;;;;;;;6.90;2.60;;;;;;;28.91;25.52;101706.52;1733125;81;20929;-90
2022/10/13 09:43:53;;;;;;;5.40;2.08;;;;;;;28.80;25.16;101699.41;1734206;81;20914;-89
2022/10/13 09:46:28;;;;;;;4.45;3.02;;;;;;;28.77;25.14;101702.46;1762747;80;21384;-89
2022/10/13 09:49:09;;;;;;;6.55;3.15;;;;;;;28.70;24.96;101699.66;1763027;81;21163;-90
2022/10/13 09:51:43;;;;;;;6.75;3.33;;;;;;;28.59;25.19;101699.63;1760378;80;20985;-92
2022/10/13 09:54:38;;;;;;;5.17;3.22;;;;;;;28.72;25.27;101700.32;1762883;80;20937;-89
2022/10/13 09:57:21;;;;;;;4.95;3.10;;;;;;;28.87;25.69;101691.70;1762588;80;20955;-90
2022/10/13 10:00:05;;;;;;;16.87;14.60;;;;;;;28.86;25.00;101690.56;1762745;80;21008;-89
2022/10/13 10:02:39;;;;;;;4.35;2.52;;;;;;;28.90;24.81;101689.14;1763252;80;21869;-89
2022/10/13 10:05:23;;;;;;;5.20;2.42;;;;;;;28.84;24.44;101689.39;1764171;79;20942;-92
2022/10/13 10:07:53;;;;;;;6.70;2.70;;;;;;;28.96;24.80;101695.16;1764864;79;20978;-90
2022/10/13 10:10:35;;;;;;;6.08;2.45;;;;;;;28.82;24.01;101684.69;1764623;79;20963;-91
2022/10/13 10:13:11;;;;;;;4.35;2.33;;;;;;;28.43;23.67;101682.21;1764883;79;21177;-90
2022/10/13 10:16:21;;;;;;;4.20;1.55;;;;;;;28.04;23.84;101691.34;1763514;80;21588;-91
2022/10/13 10:18:52;;;;;;;4.05;1.75;;;;;;;27.53;24.72;101689.66;1763142;80;20941;-93
2022/10/13 10:21:42;;;;;;;2.70;1.70;;;;;;;26.68;25.73;101685.78;1763849;79;20907;-90
2022/10/13 10:24:28;;;;;;;4.03;2.22;;;;;;;26.40;26.28;101680.74;1764258;79;20981;-91
2022/10/13 10:27:14;;;;;;;7.97;6.00;;;;;;;26.41;26.41;101676.20;1764245;79;20851;-90
2022/10/13 10:30:16;;;;;;;8.35;5.67;;;;;;;26.64;26.44;101672.33;1695746;79;22548;-90
2022/10/13 10:35:50;;;;;;;12.20;8.95;;;;;;;27.44;25.26;101666.80;1858581;77;22505;-89
2022/10/13 10:38:34;;;;;;;8.10;2.67;;;;;;;27.60;24.99;101669.89;1825088;77;20950;-90
2022/10/13 10:41:28;;;;;;;6.10;1.62;;;;;;;27.61;24.69;101675.59;1825113;77;21211;-90
2022/10/13 10:44:08;;;;;;;3.85;1.32;;;;;;;27.33;25.05;101687.41;1790852;77;20967;-92
2022/10/13 10:46:42;;;;;;;2.92;1.50;;;;;;;26.93;25.31;101676.28;1731681;79;20821;-92
2022/10/13 10:49:32;;;;;;;6.47;1.82;;;;;;;26.57;25.77;101669.97;1777992;78;20904;-91
2022/10/13 10:52:03;;;;;;;4.33;1.72;;;;;;;26.28;26.01;101663.77;1778688;79;20920;-91
2022/10/13 10:54:56;;;;;;;3.67;1.35;;;;;;;25.97;26.59;101662.62;1778372;79;21109;-93
2022/10/13 10:57:52;;;;;;;5.33;2.00;;;;;;;24.77;27.56;101659.23;1728870;81;21425;-92
2022/10/13 11:00:21;;;;;;;1.42;0.88;;;;;;;24.77;27.56;101659.23;1693317;83;20928;-91
2022/10/13 11:03:16;;;;;;;5.28;1.65;;;;;;;24.08;27.72;101652.02;1667469;85;20952;-91
2022/10/13 11:06:02;;;;;;;4.75;1.80;;;;;;;23.47;28.29;101661.64;1693515;85;20877;-88
2022/10/13 11:08:42;;;;;;;3.80;1.50;;;;;;;22.78;29.39;101661.12;1692877;83;21259;-89
2022/10/13 11:11:28;;;;;;;6.55;1.77;;;;;;;22.19;30.45;101658.20;1692215;85;20911;-88
2022/10/13 11:14:07;;;;;;;3.55;1.72;;;;;;;21.72;31.70;101661.11;1691327;85;20980;-91
2022/10/13 11:16:39;;;;;;;5.30;1.67;;;;;;;21.32;31.91;101649.98;1677722;84;21552;-87
2022/10/13 11:19:28;;;;;;;2.55;1.40;;;;;;;20.99;32.38;101649.82;1690428;85;20960;-88
2022/10/13 11:22:01;;;;;;;6.33;2.20;;;;;;;20.59;32.78;101647.95;1690935;85;21139;-88
2022/10/13 11:24:42;;;;;;;3.05;1.60;;;;;;;20.18;33.67;101642.96;1691006;85;21000;-87
2022/10/13 11:27:19;;;;;;;9.23;1.77;;;;;;;19.86;33.97;101637.19;1692741;84;20885;-87
2022/10/13 11:29:53;;;;;;;4.03;2.20;;;;;;;19.65;35.15;101642.45;1692661;84;20972;-86
2022/10/13 11:35:05;;;;;;;5.35;2.00;;;;;;;19.28;35.33;101640.61;1718713;82;21909;-90
2022/10/13 11:37:59;;;;;;;5.25;2.00;;;;;;;19.25;35.81;101638.18;1742132;82;20907;-90
2022/10/13 11:40:46;;;;;;;3.70;1.30;;;;;;;19.27;35.43;101644.22;1719018;82;20909;-90
2022/10/13 11:43:36;;;;;;;2.58;1.35;;;;;;;19.15;36.24;101643.41;1756719;79;21476;-89
2022/10/13 11:46:32;;;;;;;4.50;1.67;;;;;;;18.94;35.97;101646.43;1769187;80;20941;-89
2022/10/13 11:49:46;;;;;;;5.55;2.37;;;;;;;18.63;36.07;101643.48;1785966;80;21285;-87
2022/10/13 11:52:21;;;;;;;4.55;1.70;;;;;;;18.35;36.64;101646.95;1735813;82;20898;-89
2022/10/13 11:54:53;;;;;;;6.28;2.17;;;;;;;18.04;37.49;101644.94;1736272;82;20897;-89
2022/10/13 11:57:23;;;;;;;6.75;2.20;;;;;;;17.89;38.00;101648.25;1735009;82;20925;-89
2022/10/13 11:59:54;;;;;;;4.30;2.05;;;;;;;17.72;38.29;101650.33;1736520;82;21404;-88